Time;durP1;ratioP1;P1;durP2;ratioP2;P2;SDS_P1;SDS_P2;PMS_P1;PMS_P2;Temp;Humidity;BMP_temperature;BMP_pressure;BME280_temperature;BME280_humidity;BME280_pressure;Samples;Min_cycle;Max_cycle;Signal;HPM_P1;HPM_P2
2023/03/30 00:00:51;;;;;;;5.70;3.47;;;;;;;;;;4413438;32;317487;-76
2023/03/30 00:03:21;;;;;;;6.63;3.57;;;;;;;;;;4398609;32;317309;-75
2023/03/30 00:05:48;;;;;;;3.73;2.80;;;;;;;;;;4417771;32;357182;-75
2023/03/30 00:08:17;;;;;;;4.97;2.70;;;;;;;;;;4403304;32;317217;-78
2023/03/30 00:10:46;;;;;;;7.67;3.17;;;;;;;;;;4414340;32;317637;-76
2023/03/30 00:13:13;;;;;;;6.13;2.97;;;;;;;;;;4403746;32;317282;-75
2023/03/30 00:15:41;;;;;;;5.33;3.03;;;;;;;;;;4413414;32;317283;-75
2023/03/30 00:18:10;;;;;;;2.70;2.33;;;;;;;;;;4404719;32;316704;-79
2023/03/30 00:20:41;;;;;;;4.90;3.20;;;;;;;;;;4414382;32;317451;-76
2023/03/30 00:23:08;;;;;;;9.33;3.70;;;;;;;;;;4406981;32;316403;-79
2023/03/30 00:25:36;;;;;;;4.70;3.00;;;;;;;;;;4413031;32;317538;-76
2023/03/30 00:28:05;;;;;;;6.23;3.03;;;;;;;;;;4414940;32;316787;-76
2023/03/30 00:30:33;;;;;;;9.10;3.07;;;;;;;;;;4402680;32;317179;-76
2023/03/30 00:33:00;;;;;;;9.03;4.40;;;;;;;;;;4413995;32;317344;-77
2023/03/30 00:35:29;;;;;;;8.53;5.07;;;;;;;;;;4403800;32;317291;-76
2023/03/30 00:37:56;;;;;;;11.67;6.50;;;;;;;;;;4413176;32;317688;-79
2023/03/30 00:40:24;;;;;;;10.63;6.20;;;;;;;;;;4403344;32;317524;-76
2023/03/30 00:42:57;;;;;;;12.73;6.10;;;;;;;;;;4410517;32;317607;-81
2023/03/30 00:45:26;;;;;;;11.63;6.10;;;;;;;;;;4387019;32;327333;-76
2023/03/30 00:47:59;;;;;;;10.10;5.03;;;;;;;;;;4407902;32;318127;-76
2023/03/30 00:50:33;;;;;;;13.33;6.97;;;;;;;;;;4403790;32;318791;-75
2023/03/30 00:53:05;;;;;;;24.07;12.13;;;;;;;;;;4412408;32;317470;-77
2023/03/30 00:55:34;;;;;;;29.13;15.30;;;;;;;;;;4394002;32;318755;-76
2023/03/30 00:58:03;;;;;;;42.47;25.70;;;;;;;;;;4402213;32;352942;-81
2023/03/30 01:00:29;;;;;;;19.30;10.33;;;;;;;;;;4386800;32;318823;-77
2023/03/30 01:03:00;;;;;;;16.90;11.10;;;;;;;;;;4397142;32;318739;-78
2023/03/30 01:05:28;;;;;;;17.77;8.90;;;;;;;;;;4386308;32;326500;-79
2023/03/30 01:07:57;;;;;;;6.83;5.13;;;;;;;;;;4397922;32;317552;-81
2023/03/30 01:10:24;;;;;;;10.17;4.23;;;;;;;;;;4392739;32;317425;-78
2023/03/30 01:12:54;;;;;;;11.30;4.37;;;;;;;;;;4397951;32;318381;-78
2023/03/30 01:15:24;;;;;;;8.97;4.30;;;;;;;;;;4386005;32;344699;-76
2023/03/30 01:18:08;;;;;;;6.87;4.77;;;;;;;;;;4397644;32;317344;-76
2023/03/30 01:21:04;;;;;;;13.43;4.40;;;;;;;;;;4384859;32;416140;-77
2023/03/30 01:23:56;;;;;;;7.73;4.63;;;;;;;;;;4386210;32;317770;-77
2023/03/30 01:26:53;;;;;;;9.00;4.60;;;;;;;;;;4381251;32;316514;-77
2023/03/30 01:29:35;;;;;;;6.77;3.70;;;;;;;;;;4392818;32;317368;-77
2023/03/30 01:32:37;;;;;;;4.73;2.90;;;;;;;;;;4397966;32;317206;-78
2023/03/30 01:35:39;;;;;;;4.87;2.60;;;;;;;;;;4391604;32;388240;-77
2023/03/30 01:38:35;;;;;;;7.07;3.40;;;;;;;;;;4408357;32;417094;-77
2023/03/30 01:41:12;;;;;;;4.93;3.10;;;;;;;;;;4384552;32;416338;-78
2023/03/30 01:43:48;;;;;;;6.80;4.07;;;;;;;;;;4383516;32;416266;-76
2023/03/30 01:46:24;;;;;;;6.50;3.63;;;;;;;;;;4387218;32;316565;-78
2023/03/30 01:48:59;;;;;;;7.00;3.37;;;;;;;;;;4402115;32;316572;-77
2023/03/30 01:51:29;;;;;;;7.57;3.50;;;;;;;;;;4387801;32;317281;-76
2023/03/30 01:54:03;;;;;;;6.27;3.43;;;;;;;;;;4397528;32;317812;-78
2023/03/30 01:56:36;;;;;;;5.00;2.90;;;;;;;;;;4387035;32;316549;-78
2023/03/30 01:59:10;;;;;;;5.37;3.50;;;;;;;;;;4412704;32;316816;-76
2023/03/30 02:01:40;;;;;;;8.03;4.80;;;;;;;;;;4391618;32;417358;-88
2023/03/30 02:04:10;;;;;;;7.03;3.83;;;;;;;;;;4413128;32;317371;-78
2023/03/30 02:06:41;;;;;;;8.23;3.57;;;;;;;;;;4399099;32;418441;-76
2023/03/30 02:09:15;;;;;;;10.10;3.03;;;;;;;;;;4405704;32;316736;-77
2023/03/30 02:11:46;;;;;;;8.30;3.73;;;;;;;;;;4413175;32;318546;-76
2023/03/30 02:14:15;;;;;;;4.97;3.07;;;;;;;;;;4394597;32;360701;-76
2023/03/30 02:16:46;;;;;;;6.03;2.40;;;;;;;;;;4422837;32;317936;-76
2023/03/30 02:19:14;;;;;;;4.87;2.90;;;;;;;;;;4405881;32;316853;-76
2023/03/30 02:21:41;;;;;;;4.30;2.83;;;;;;;;;;4415492;32;317300;-76
2023/03/30 02:24:16;;;;;;;6.13;2.90;;;;;;;;;;4415464;32;316931;-76
2023/03/30 02:26:45;;;;;;;4.17;2.67;;;;;;;;;;4390205;32;388307;-76
2023/03/30 02:29:13;;;;;;;3.90;2.57;;;;;;;;;;4404157;32;316736;-76
2023/03/30 02:31:40;;;;;;;5.07;2.43;;;;;;;;;;4414184;32;316499;-76
2023/03/30 02:34:21;;;;;;;4.27;2.87;;;;;;;;;;4415307;32;317412;-78
2023/03/30 02:37:05;;;;;;;5.07;2.60;;;;;;;;;;4391128;32;415973;-78
2023/03/30 02:39:39;;;;;;;3.40;2.40;;;;;;;;;;4390432;32;316648;-76
2023/03/30 02:42:40;;;;;;;6.80;2.50;;;;;;;;;;4399151;32;317258;-76
2023/03/30 02:45:32;;;;;;;11.90;3.10;;;;;;;;;;4395441;32;416768;-76
2023/03/30 02:48:12;;;;;;;5.43;3.10;;;;;;;;;;4398020;32;418174;-77
2023/03/30 02:50:45;;;;;;;4.97;3.20;;;;;;;;;;4402165;32;417523;-78
2023/03/30 02:53:22;;;;;;;7.23;3.67;;;;;;;;;;4403456;32;316567;-77
2023/03/30 02:55:59;;;;;;;6.33;3.33;;;;;;;;;;4415429;32;317105;-77
2023/03/30 02:58:35;;;;;;;7.23;4.27;;;;;;;;;;4392876;32;317703;-76
2023/03/30 03:01:06;;;;;;;7.00;4.30;;;;;;;;;;4400932;32;316404;-77
2023/03/30 03:03:36;;;;;;;9.47;3.60;;;;;;;;;;4394301;32;317367;-75
2023/03/30 03:06:04;;;;;;;8.20;4.87;;;;;;;;;;4402871;32;316395;-78
2023/03/30 03:08:35;;;;;;;8.63;4.90;;;;;;;;;;4398761;32;316876;-81
2023/03/30 03:11:02;;;;;;;14.43;5.43;;;;;;;;;;4415124;32;315711;-77
2023/03/30 03:13:30;;;;;;;15.20;5.77;;;;;;;;;;4394705;32;317384;-83
2023/03/30 03:15:57;;;;;;;12.20;6.07;;;;;;;;;;4398615;32;318207;-77
2023/03/30 03:18:24;;;;;;;14.27;6.53;;;;;;;;;;4389575;32;317924;-78
2023/03/30 03:20:51;;;;;;;8.80;5.70;;;;;;;;;;4396380;32;317572;-77
2023/03/30 03:23:18;;;;;;;15.43;7.53;;;;;;;;;;4395081;32;317485;-78
2023/03/30 03:25:47;;;;;;;17.10;8.13;;;;;;;;;;4414882;32;317971;-77
2023/03/30 03:28:14;;;;;;;24.10;12.20;;;;;;;;;;4401544;32;317625;-77
2023/03/30 03:30:42;;;;;;;15.90;10.33;;;;;;;;;;4414477;32;319341;-77
2023/03/30 03:33:09;;;;;;;17.47;10.93;;;;;;;;;;4392562;32;319448;-77
2023/03/30 03:35:38;;;;;;;21.90;12.10;;;;;;;;;;4402889;32;318494;-77
2023/03/30 03:38:05;;;;;;;25.37;11.30;;;;;;;;;;4412043;32;318428;-76
2023/03/30 03:40:32;;;;;;;19.53;8.67;;;;;;;;;;4405982;32;319407;-77
2023/03/30 03:43:00;;;;;;;15.80;9.20;;;;;;;;;;4397879;32;318081;-79
2023/03/30 03:45:27;;;;;;;15.00;8.37;;;;;;;;;;4387920;32;318900;-77
2023/03/30 03:47:56;;;;;;;17.07;8.47;;;;;;;;;;4408892;32;318310;-76
2023/03/30 03:50:22;;;;;;;15.07;9.10;;;;;;;;;;4403479;32;318470;-77
2023/03/30 03:52:50;;;;;;;11.93;6.43;;;;;;;;;;4414460;32;318417;-76
2023/03/30 03:55:17;;;;;;;10.53;7.20;;;;;;;;;;4403203;32;318323;-76
2023/03/30 03:57:44;;;;;;;19.43;7.40;;;;;;;;;;4405696;32;318421;-76
2023/03/30 04:00:16;;;;;;;21.30;7.57;;;;;;;;;;4383234;32;318517;-77
2023/03/30 04:02:44;;;;;;;14.83;6.93;;;;;;;;;;4403980;32;318183;-77
2023/03/30 04:05:12;;;;;;;11.23;8.23;;;;;;;;;;4389354;32;318583;-77
2023/03/30 04:07:40;;;;;;;15.53;9.33;;;;;;;;;;4403811;32;318308;-77
2023/03/30 04:10:08;;;;;;;15.10;8.57;;;;;;;;;;4414192;32;318695;-82
2023/03/30 04:12:35;;;;;;;14.77;8.80;;;;;;;;;;4400550;32;390127;-77
2023/03/30 04:15:04;;;;;;;16.53;9.33;;;;;;;;;;4412662;32;317660;-78
2023/03/30 04:17:32;;;;;;;15.27;8.47;;;;;;;;;;4402097;32;328090;-78
2023/03/30 04:20:04;;;;;;;27.70;14.50;;;;;;;;;;4412547;32;317687;-75
2023/03/30 04:22:34;;;;;;;27.60;15.13;;;;;;;;;;4402283;32;318828;-75
2023/03/30 04:25:05;;;;;;;24.43;14.30;;;;;;;;;;4413673;32;318851;-76
2023/03/30 04:27:33;;;;;;;24.70;12.43;;;;;;;;;;4403415;32;319320;-76
2023/03/30 04:30:00;;;;;;;20.43;14.33;;;;;;;;;;4398219;32;319417;-76
2023/03/30 04:32:33;;;;;;;26.20;14.33;;;;;;;;;;4386956;32;319608;-76
2023/03/30 04:35:00;;;;;;;21.17;13.17;;;;;;;;;;4400278;32;317792;-76
2023/03/30 04:37:30;;;;;;;20.83;14.87;;;;;;;;;;4403684;32;318719;-75
2023/03/30 04:40:00;;;;;;;27.70;14.47;;;;;;;;;;4412174;32;319172;-75
2023/03/30 04:42:32;;;;;;;25.47;14.00;;;;;;;;;;4403103;32;318691;-75
2023/03/30 04:45:00;;;;;;;27.27;12.80;;;;;;;;;;4412346;32;347829;-76
2023/03/30 04:47:28;;;;;;;22.47;11.17;;;;;;;;;;4400302;32;318526;-74
2023/03/30 04:49:55;;;;;;;40.73;19.63;;;;;;;;;;4417074;32;319508;-75
2023/03/30 04:52:22;;;;;;;58.27;34.80;;;;;;;;;;4401734;32;320244;-75
2023/03/30 04:54:49;;;;;;;67.43;32.77;;;;;;;;;;4411309;32;318655;-75
2023/03/30 04:57:17;;;;;;;63.27;31.63;;;;;;;;;;4402304;32;318853;-78
2023/03/30 04:59:45;;;;;;;43.70;21.93;;;;;;;;;;4411030;32;318855;-77
2023/03/30 05:02:13;;;;;;;35.27;15.33;;;;;;;;;;4401657;32;319156;-77
2023/03/30 05:04:41;;;;;;;30.53;11.63;;;;;;;;;;4412880;32;317503;-77
2023/03/30 05:07:09;;;;;;;19.70;11.80;;;;;;;;;;4402922;32;318652;-77
2023/03/30 05:09:36;;;;;;;15.80;10.50;;;;;;;;;;4399512;32;420564;-77
2023/03/30 05:12:05;;;;;;;18.63;8.90;;;;;;;;;;4412726;32;317784;-75
2023/03/30 05:14:33;;;;;;;12.87;7.67;;;;;;;;;;4392839;32;318667;-77
2023/03/30 05:17:00;;;;;;;13.70;6.83;;;;;;;;;;4411455;32;318025;-77
2023/03/30 05:19:28;;;;;;;26.67;12.70;;;;;;;;;;4402592;32;318203;-82
2023/03/30 05:21:55;;;;;;;44.43;22.97;;;;;;;;;;4411953;32;318866;-79
2023/03/30 05:24:22;;;;;;;40.77;19.73;;;;;;;;;;4393081;32;319303;-79
2023/03/30 05:26:49;;;;;;;41.40;18.70;;;;;;;;;;4389716;32;323769;-77
2023/03/30 05:29:16;;;;;;;21.77;13.67;;;;;;;;;;4392814;32;318643;-77
2023/03/30 05:31:46;;;;;;;25.03;9.10;;;;;;;;;;4399870;32;319343;-77
2023/03/30 05:34:14;;;;;;;19.27;9.63;;;;;;;;;;4401985;32;318232;-78
2023/03/30 05:36:41;;;;;;;26.10;12.73;;;;;;;;;;4410285;32;317664;-78
2023/03/30 05:39:12;;;;;;;31.47;11.17;;;;;;;;;;4412413;32;318581;-77
2023/03/30 05:41:39;;;;;;;45.80;15.80;;;;;;;;;;4389272;32;418556;-77
2023/03/30 05:44:06;;;;;;;52.83;17.57;;;;;;;;;;4406237;32;319224;-80
2023/03/30 05:46:33;;;;;;;34.17;15.27;;;;;;;;;;4399284;32;318486;-76
2023/03/30 05:49:01;;;;;;;51.13;19.47;;;;;;;;;;4406635;32;319279;-77
2023/03/30 05:51:28;;;;;;;31.23;14.33;;;;;;;;;;4383711;32;318984;-77
2023/03/30 05:53:55;;;;;;;20.30;9.80;;;;;;;;;;4395111;32;319512;-77
2023/03/30 05:56:23;;;;;;;17.03;9.57;;;;;;;;;;4385901;32;318640;-78
2023/03/30 05:58:50;;;;;;;16.20;9.80;;;;;;;;;;4395610;32;318287;-76
2023/03/30 06:01:19;;;;;;;18.87;10.00;;;;;;;;;;4387585;32;318112;-78
2023/03/30 06:03:46;;;;;;;18.83;8.73;;;;;;;;;;4398829;32;318397;-77
2023/03/30 06:06:17;;;;;;;16.53;8.90;;;;;;;;;;4390706;32;318151;-77
2023/03/30 06:08:43;;;;;;;11.93;5.37;;;;;;;;;;4398148;32;318056;-78
2023/03/30 06:11:12;;;;;;;12.93;4.77;;;;;;;;;;4387771;32;318293;-78
2023/03/30 06:13:39;;;;;;;9.33;4.63;;;;;;;;;;4398735;32;318107;-79
2023/03/30 06:16:07;;;;;;;8.40;5.80;;;;;;;;;;4409629;32;316928;-78
2023/03/30 06:18:34;;;;;;;8.03;4.33;;;;;;;;;;4400098;32;418141;-79
2023/03/30 06:21:05;;;;;;;5.20;3.30;;;;;;;;;;4406155;32;316581;-78
2023/03/30 06:23:33;;;;;;;10.67;5.50;;;;;;;;;;4386200;32;316402;-78
2023/03/30 06:26:00;;;;;;;8.33;4.10;;;;;;;;;;4403284;32;318305;-79
2023/03/30 06:28:29;;;;;;;5.83;3.23;;;;;;;;;;4393524;32;317452;-79
2023/03/30 06:31:01;;;;;;;5.93;3.50;;;;;;;;;;4411916;32;316368;-79
2023/03/30 06:33:30;;;;;;;7.50;4.07;;;;;;;;;;4400997;32;317208;-79
2023/03/30 06:35:59;;;;;;;8.33;5.13;;;;;;;;;;4399567;32;316620;-78
2023/03/30 06:38:26;;;;;;;9.47;5.37;;;;;;;;;;4387151;32;317133;-78
2023/03/30 06:40:55;;;;;;;7.50;4.47;;;;;;;;;;4412103;32;317212;-81
2023/03/30 06:43:24;;;;;;;7.03;4.50;;;;;;;;;;4390480;32;316543;-78
2023/03/30 06:45:52;;;;;;;8.40;4.83;;;;;;;;;;4404445;32;316797;-78
2023/03/30 06:48:21;;;;;;;11.37;6.33;;;;;;;;;;4386485;32;346519;-77
2023/03/30 06:50:48;;;;;;;12.73;5.97;;;;;;;;;;4411131;32;318814;-77
2023/03/30 06:53:16;;;;;;;10.33;6.90;;;;;;;;;;4400059;32;317747;-82
2023/03/30 06:55:43;;;;;;;13.97;6.87;;;;;;;;;;4417077;32;346758;-77
2023/03/30 06:58:11;;;;;;;10.93;5.43;;;;;;;;;;4408978;32;317368;-82
2023/03/30 07:00:38;;;;;;;7.33;5.20;;;;;;;;;;4420662;32;318123;-82
2023/03/30 07:03:05;;;;;;;13.83;6.97;;;;;;;;;;4424872;32;316724;-80
2023/03/30 07:05:32;;;;;;;14.97;9.63;;;;;;;;;;4404221;32;318015;-76
2023/03/30 07:08:01;;;;;;;11.73;8.07;;;;;;;;;;4424154;32;318103;-77
2023/03/30 07:10:28;;;;;;;16.67;8.17;;;;;;;;;;4389725;32;318236;-76
2023/03/30 07:12:59;;;;;;;19.40;9.97;;;;;;;;;;4399640;32;318154;-77
2023/03/30 07:15:28;;;;;;;17.83;9.87;;;;;;;;;;4387577;32;317577;-77
2023/03/30 07:17:55;;;;;;;13.90;8.47;;;;;;;;;;4407085;32;318075;-78
2023/03/30 07:20:23;;;;;;;15.97;10.07;;;;;;;;;;4404563;32;318286;-77
2023/03/30 07:22:51;;;;;;;14.83;8.67;;;;;;;;;;4414626;32;318526;-78
2023/03/30 07:25:18;;;;;;;17.63;9.30;;;;;;;;;;4404895;32;317475;-81
2023/03/30 07:27:48;;;;;;;12.73;6.87;;;;;;;;;;4407852;32;317468;-79
2023/03/30 07:30:15;;;;;;;9.97;6.97;;;;;;;;;;4386814;32;317927;-78
2023/03/30 07:32:49;;;;;;;17.27;6.37;;;;;;;;;;4403026;32;317766;-79
2023/03/30 07:35:16;;;;;;;7.93;5.83;;;;;;;;;;4395413;32;318307;-78
2023/03/30 07:37:42;;;;;;;8.00;5.03;;;;;;;;;;4398305;32;328485;-80
2023/03/30 07:40:10;;;;;;;11.97;6.43;;;;;;;;;;4388664;32;317597;-82
2023/03/30 07:42:37;;;;;;;14.13;7.97;;;;;;;;;;4400038;32;318196;-81
2023/03/30 07:45:04;;;;;;;18.43;9.50;;;;;;;;;;4412745;32;318301;-81
2023/03/30 07:47:31;;;;;;;14.90;9.03;;;;;;;;;;4404138;32;318414;-80
2023/03/30 07:50:05;;;;;;;10.83;5.23;;;;;;;;;;4410973;32;317346;-81
2023/03/30 07:52:33;;;;;;;18.67;6.00;;;;;;;;;;4385671;32;318007;-80
2023/03/30 07:55:01;;;;;;;7.30;4.47;;;;;;;;;;4395526;32;317934;-79
2023/03/30 07:57:27;;;;;;;8.03;5.10;;;;;;;;;;4386913;32;317336;-82
2023/03/30 07:59:54;;;;;;;10.27;6.00;;;;;;;;;;4397219;32;317297;-80
2023/03/30 08:02:21;;;;;;;10.80;5.67;;;;;;;;;;4384906;32;318103;-80
2023/03/30 08:04:48;;;;;;;8.83;4.70;;;;;;;;;;4395289;32;318312;-81
2023/03/30 08:07:16;;;;;;;7.57;4.80;;;;;;;;;;4386225;32;317060;-79
2023/03/30 08:09:44;;;;;;;6.57;4.37;;;;;;;;;;4404121;32;317196;-80
2023/03/30 08:12:11;;;;;;;7.53;3.97;;;;;;;;;;4402711;32;316391;-81
2023/03/30 08:14:40;;;;;;;11.97;5.03;;;;;;;;;;4401393;32;316722;-81
2023/03/30 08:17:06;;;;;;;9.77;4.83;;;;;;;;;;4400827;32;318333;-81
2023/03/30 08:19:33;;;;;;;11.73;4.50;;;;;;;;;;4388311;32;317549;-80
2023/03/30 08:22:01;;;;;;;6.90;4.47;;;;;;;;;;4409314;32;317986;-81
2023/03/30 08:24:30;;;;;;;14.03;5.30;;;;;;;;;;4403909;32;317296;-81
2023/03/30 08:26:56;;;;;;;8.70;4.23;;;;;;;;;;4413417;32;318321;-82
2023/03/30 08:29:23;;;;;;;6.17;3.57;;;;;;;;;;4393653;32;316389;-80
2023/03/30 08:31:51;;;;;;;9.23;4.03;;;;;;;;;;4412263;32;317493;-84
2023/03/30 08:34:19;;;;;;;11.33;4.77;;;;;;;;;;4401351;32;316526;-78
2023/03/30 08:36:46;;;;;;;22.80;11.93;;;;;;;;;;4405513;32;318710;-78
2023/03/30 08:39:14;;;;;;;14.97;5.27;;;;;;;;;;4388595;32;319587;-81
2023/03/30 08:41:58;;;;;;;4.90;3.70;;;;;;;;;;4395414;32;318202;-81
2023/03/30 08:44:43;;;;;;;9.83;4.00;;;;;;;;;;4411066;32;317338;-80
2023/03/30 08:47:16;;;;;;;8.43;3.57;;;;;;;;;;4404467;32;316948;-81
2023/03/30 08:49:50;;;;;;;8.93;4.73;;;;;;;;;;4427533;32;316557;-84
2023/03/30 08:52:23;;;;;;;10.03;3.83;;;;;;;;;;4417706;32;317809;-80
2023/03/30 08:55:02;;;;;;;8.50;3.97;;;;;;;;;;4427849;32;318006;-81
2023/03/30 08:57:41;;;;;;;12.23;3.13;;;;;;;;;;4409425;32;317177;-82
2023/03/30 09:00:20;;;;;;;6.47;3.50;;;;;;;;;;4426871;32;318204;-83
2023/03/30 09:02:51;;;;;;;8.63;3.50;;;;;;;;;;4415396;32;417459;-80
2023/03/30 09:05:22;;;;;;;10.00;3.93;;;;;;;;;;4417491;32;338684;-80
2023/03/30 09:07:57;;;;;;;8.47;4.13;;;;;;;;;;4428788;32;318340;-83
2023/03/30 09:10:26;;;;;;;5.40;3.60;;;;;;;;;;4406884;32;317349;-80
2023/03/30 09:13:07;;;;;;;10.73;3.30;;;;;;;;;;4412331;32;316505;-81
2023/03/30 09:15:42;;;;;;;7.00;3.40;;;;;;;;;;4400009;32;418284;-81
2023/03/30 09:18:17;;;;;;;10.70;4.53;;;;;;;;;;4410801;32;316786;-80
2023/03/30 09:20:46;;;;;;;8.20;3.13;;;;;;;;;;4395460;32;417321;-82
2023/03/30 09:23:16;;;;;;;9.67;3.73;;;;;;;;;;4379349;32;316560;-81
2023/03/30 09:25:50;;;;;;;7.17;3.83;;;;;;;;;;4411746;32;316523;-82
2023/03/30 09:28:22;;;;;;;10.13;3.77;;;;;;;;;;4403714;32;317156;-80
2023/03/30 09:30:53;;;;;;;15.73;3.77;;;;;;;;;;4412436;32;317871;-81
2023/03/30 09:33:30;;;;;;;7.63;3.23;;;;;;;;;;4401550;32;317692;-83
2023/03/30 09:36:08;;;;;;;10.00;3.63;;;;;;;;;;4410660;32;317436;-80
2023/03/30 09:38:40;;;;;;;8.73;3.43;;;;;;;;;;4399412;32;417333;-83
2023/03/30 09:41:35;;;;;;;11.53;4.50;;;;;;;;;;4409985;32;316604;-84
2023/03/30 09:44:04;;;;;;;8.40;3.20;;;;;;;;;;4397317;32;418542;-82
2023/03/30 09:46:31;;;;;;;6.83;3.10;;;;;;;;;;4417977;32;317453;-79
2023/03/30 09:49:14;;;;;;;10.83;3.67;;;;;;;;;;4426670;32;316848;-80
2023/03/30 09:51:55;;;;;;;7.83;3.20;;;;;;;;;;4415091;32;418383;-80
2023/03/30 09:54:23;;;;;;;5.57;2.97;;;;;;;;;;4416978;32;317306;-81
2023/03/30 09:56:55;;;;;;;9.40;3.20;;;;;;;;;;4426465;32;317283;-81
2023/03/30 09:59:29;;;;;;;10.50;3.63;;;;;;;;;;4416145;32;317352;-80
2023/03/30 10:02:10;;;;;;;10.23;4.00;;;;;;;;;;4427293;32;317650;-80
2023/03/30 10:04:56;;;;;;;5.93;2.93;;;;;;;;;;4414413;32;420038;-80
2023/03/30 10:07:25;;;;;;;4.07;2.53;;;;;;;;;;4388734;32;317449;-81
2023/03/30 10:09:52;;;;;;;4.90;3.07;;;;;;;;;;4397209;32;316602;-81
2023/03/30 10:12:21;;;;;;;11.60;3.37;;;;;;;;;;4384862;32;316866;-83
2023/03/30 10:14:53;;;;;;;8.03;2.87;;;;;;;;;;4411440;32;318932;-91
2023/03/30 10:17:23;;;;;;;8.47;3.20;;;;;;;;;;4402497;32;317247;-80
2023/03/30 10:19:52;;;;;;;8.00;2.93;;;;;;;;;;4412635;32;316897;-89
2023/03/30 10:22:21;;;;;;;7.40;2.93;;;;;;;;;;4400328;32;316616;-80
2023/03/30 10:24:54;;;;;;;4.90;2.87;;;;;;;;;;4412101;32;317091;-81
2023/03/30 10:27:26;;;;;;;8.13;3.27;;;;;;;;;;4402468;32;316643;-85
2023/03/30 10:29:57;;;;;;;4.80;2.67;;;;;;;;;;4409901;32;316689;-82
2023/03/30 10:32:29;;;;;;;7.83;3.40;;;;;;;;;;4400800;32;322547;-79
2023/03/30 10:35:00;;;;;;;4.93;2.43;;;;;;;;;;4411004;32;316419;-83
2023/03/30 10:37:31;;;;;;;7.17;2.97;;;;;;;;;;4397534;32;317134;-78
2023/03/30 10:39:59;;;;;;;10.47;2.70;;;;;;;;;;4407855;32;316988;-81
2023/03/30 10:42:32;;;;;;;5.27;3.03;;;;;;;;;;4400372;32;318222;-80
2023/03/30 10:45:01;;;;;;;13.13;3.37;;;;;;;;;;4430935;32;317240;-78
2023/03/30 10:47:44;;;;;;;11.53;2.97;;;;;;;;;;4418920;32;318237;-78
2023/03/30 10:50:22;;;;;;;7.10;2.53;;;;;;;;;;4421058;32;318642;-79
2023/03/30 10:53:02;;;;;;;5.23;2.87;;;;;;;;;;4427981;32;317235;-78
2023/03/30 10:55:36;;;;;;;5.03;3.00;;;;;;;;;;4422853;32;327997;-75
2023/03/30 10:58:13;;;;;;;6.13;2.33;;;;;;;;;;4433516;32;316736;-77
2023/03/30 11:01:03;;;;;;;8.13;3.20;;;;;;;;;;4416952;32;417354;-77
2023/03/30 11:03:31;;;;;;;6.33;3.47;;;;;;;;;;4383144;32;316735;-78
2023/03/30 11:06:03;;;;;;;6.35;2.78;;;;;;;;;;4407359;32;316818;-79
2023/03/30 11:08:35;;;;;;;8.77;2.80;;;;;;;;;;4387186;32;317445;-78
2023/03/30 11:11:03;;;;;;;4.35;2.62;;;;;;;;;;4412193;32;327522;-79
2023/03/30 11:13:34;;;;;;;3.78;2.20;;;;;;;;;;4404120;32;317560;-79
2023/03/30 11:16:08;;;;;;;5.17;2.53;;;;;;;;;;4414228;32;317372;-81
2023/03/30 11:18:41;;;;;;;8.40;3.10;;;;;;;;;;4404410;32;317211;-80
2023/03/30 11:21:12;;;;;;;8.23;3.13;;;;;;;;;;4416406;32;317385;-86
2023/03/30 11:23:44;;;;;;;7.97;3.30;;;;;;;;;;4399994;32;417267;-81
2023/03/30 11:26:14;;;;;;;8.25;3.15;;;;;;;;;;4403224;32;317442;-78
2023/03/30 11:28:55;;;;;;;4.82;2.37;;;;;;;;;;4413629;32;317362;-79
2023/03/30 11:31:53;;;;;;;9.73;3.00;;;;;;;;;;4402789;32;343685;-79
2023/03/30 11:34:29;;;;;;;8.77;3.47;;;;;;;;;;4402620;32;317415;-78
2023/03/30 11:37:03;;;;;;;5.47;1.98;;;;;;;;;;4413194;32;317556;-80
2023/03/30 11:39:33;;;;;;;5.03;2.27;;;;;;;;;;4403831;32;317073;-79
2023/03/30 11:42:07;;;;;;;9.02;2.95;;;;;;;;;;4416833;32;316445;-78
2023/03/30 11:44:34;;;;;;;4.60;3.35;;;;;;;;;;4418723;32;317236;-80
2023/03/30 11:47:16;;;;;;;8.48;3.72;;;;;;;;;;4429772;32;317205;-78
2023/03/30 11:49:54;;;;;;;6.82;2.50;;;;;;;;;;4413093;32;417982;-80
2023/03/30 11:52:31;;;;;;;5.55;2.80;;;;;;;;;;4419071;32;317310;-78
2023/03/30 11:55:27;;;;;;;5.22;2.25;;;;;;;;;;4429879;32;316418;-79
2023/03/30 11:58:03;;;;;;;5.72;2.65;;;;;;;;;;4398949;32;415959;-78
2023/03/30 12:00:44;;;;;;;5.53;2.45;;;;;;;;;;4386670;32;354624;-81
2023/03/30 12:03:23;;;;;;;3.17;2.17;;;;;;;;;;4388625;32;316441;-78
2023/03/30 12:05:56;;;;;;;7.50;2.37;;;;;;;;;;4401994;32;316950;-81
2023/03/30 12:08:42;;;;;;;7.12;2.40;;;;;;;;;;4402586;32;338950;-80
2023/03/30 12:11:16;;;;;;;7.03;2.03;;;;;;;;;;4413272;32;317119;-80
2023/03/30 12:13:43;;;;;;;6.68;2.03;;;;;;;;;;4400252;32;418285;-80
2023/03/30 12:16:16;;;;;;;8.18;1.92;;;;;;;;;;4403441;32;317006;-85
2023/03/30 12:18:56;;;;;;;6.25;1.85;;;;;;;;;;4413749;32;317250;-79
2023/03/30 12:21:32;;;;;;;6.87;2.90;;;;;;;;;;4401720;32;317484;-80
2023/03/30 12:24:09;;;;;;;4.43;2.10;;;;;;;;;;4398528;32;316346;-78
2023/03/30 12:26:37;;;;;;;5.10;2.80;;;;;;;;;;4386023;32;418353;-80
2023/03/30 12:29:12;;;;;;;7.50;2.53;;;;;;;;;;4412818;32;317055;-78
2023/03/30 12:32:05;;;;;;;2.83;1.52;;;;;;;;;;4401004;32;416823;-79
2023/03/30 12:34:36;;;;;;;7.82;2.15;;;;;;;;;;4367111;32;316502;-79
2023/03/30 12:37:08;;;;;;;6.18;2.05;;;;;;;;;;4411160;32;316598;-79
2023/03/30 12:39:43;;;;;;;7.57;3.15;;;;;;;;;;4398891;32;415842;-85
2023/03/30 12:42:25;;;;;;;6.15;2.42;;;;;;;;;;4391238;32;339230;-80
2023/03/30 12:45:19;;;;;;;6.75;3.15;;;;;;;;;;4405031;32;316640;-78
2023/03/30 12:48:00;;;;;;;12.10;4.82;;;;;;;;;;4386761;32;417335;-80
2023/03/30 12:50:38;;;;;;;8.98;3.22;;;;;;;;;;4389739;32;318323;-79
2023/03/30 12:53:24;;;;;;;15.32;4.50;;;;;;;;;;4411479;32;316591;-78
2023/03/30 12:56:00;;;;;;;7.40;3.97;;;;;;;;;;4400445;32;418479;-83
2023/03/30 12:58:48;;;;;;;8.68;2.42;;;;;;;;;;4403593;32;317091;-78
2023/03/30 13:01:27;;;;;;;8.70;2.37;;;;;;;;;;4386553;32;317132;-79
2023/03/30 13:03:55;;;;;;;13.82;2.85;;;;;;;;;;4396919;32;317136;-78
2023/03/30 13:06:29;;;;;;;8.80;3.50;;;;;;;;;;4381726;32;317700;-79
2023/03/30 13:09:04;;;;;;;7.05;2.70;;;;;;;;;;4406200;32;317254;-79
2023/03/30 13:11:44;;;;;;;7.18;2.55;;;;;;;;;;4388018;32;317250;-80
2023/03/30 13:14:27;;;;;;;7.10;3.55;;;;;;;;;;4387044;32;350283;-80
2023/03/30 13:17:15;;;;;;;10.30;3.25;;;;;;;;;;4404348;32;317129;-79
2023/03/30 13:19:50;;;;;;;9.73;2.62;;;;;;;;;;4400079;32;417689;-79
2023/03/30 13:22:29;;;;;;;11.15;4.72;;;;;;;;;;4403506;32;317375;-78
2023/03/30 13:24:59;;;;;;;6.82;3.05;;;;;;;;;;4412148;32;317460;-88
2023/03/30 13:27:32;;;;;;;12.55;4.22;;;;;;;;;;4407836;32;324288;-93
2023/03/30 13:30:01;;;;;;;6.30;3.12;;;;;;;;;;4416590;32;318128;-95
2023/03/30 13:32:47;;;;;;;6.93;2.83;;;;;;;;;;4401390;32;316721;-83
2023/03/30 13:35:40;;;;;;;9.80;3.42;;;;;;;;;;4399250;32;334519;-83
2023/03/30 13:38:46;;;;;;;14.38;2.72;;;;;;;;;;4414038;32;316428;-84
2023/03/30 13:41:22;;;;;;;10.48;2.72;;;;;;;;;;4372410;32;418275;-84
2023/03/30 13:44:01;;;;;;;6.45;2.00;;;;;;;;;;4413784;32;317739;-83
2023/03/30 13:46:34;;;;;;;10.63;2.35;;;;;;;;;;4403903;32;317201;-85
2023/03/30 13:49:14;;;;;;;15.05;3.10;;;;;;;;;;4410764;32;317645;-85
2023/03/30 13:51:43;;;;;;;16.30;5.20;;;;;;;;;;4391156;32;419847;-84
2023/03/30 13:54:16;;;;;;;6.68;3.55;;;;;;;;;;4397453;32;317780;-83
2023/03/30 13:56:49;;;;;;;13.18;7.00;;;;;;;;;;4396869;32;316639;-82
2023/03/30 13:59:19;;;;;;;6.90;2.45;;;;;;;;;;4398733;32;317817;-85
2023/03/30 14:01:50;;;;;;;14.85;4.20;;;;;;;;;;4413254;32;316472;-83
2023/03/30 14:04:17;;;;;;;5.87;3.15;;;;;;;;;;4413803;32;317410;-88
2023/03/30 14:06:48;;;;;;;6.53;2.83;;;;;;;;;;4419094;32;316520;-89
2023/03/30 14:09:22;;;;;;;5.80;2.78;;;;;;;;;;4415253;32;317164;-85
2023/03/30 14:11:52;;;;;;;5.18;2.33;;;;;;;;;;4414135;32;316533;-91
2023/03/30 14:14:24;;;;;;;6.18;3.00;;;;;;;;;;4396140;32;316882;-88
2023/03/30 14:16:52;;;;;;;3.97;2.47;;;;;;;;;;4424398;32;316407;-79
2023/03/30 14:19:25;;;;;;;9.02;2.72;;;;;;;;;;4415249;32;329611;-78
2023/03/30 14:21:57;;;;;;;3.97;1.80;;;;;;;;;;4427550;32;316310;-78
2023/03/30 14:24:30;;;;;;;5.90;3.80;;;;;;;;;;4418318;32;347565;-80
2023/03/30 14:27:02;;;;;;;4.05;2.62;;;;;;;;;;4429354;32;316196;-78
2023/03/30 14:29:31;;;;;;;18.77;2.80;;;;;;;;;;4424288;32;317130;-80
2023/03/30 14:32:01;;;;;;;5.93;2.20;;;;;;;;;;4434706;32;318205;-78
2023/03/30 14:34:30;;;;;;;12.20;5.55;;;;;;;;;;4517534;26;315448;-79
2023/03/30 14:37:01;;;;;;;9.52;3.50;;;;;;;;;;4401482;27;317197;-77
2023/03/30 14:39:30;;;;;;;9.80;6.60;;;;;;;;;;4390475;27;316581;-77
2023/03/30 14:42:08;;;;;;;5.95;3.10;;;;;;;;;;4403703;27;316685;-80
2023/03/30 14:44:39;;;;;;;8.50;2.80;;;;;;;;;;4377065;32;418611;-83
2023/03/30 14:47:06;;;;;;;245.02;170.50;;;;;;;;;;4389567;32;316857;-80
2023/03/30 14:49:35;;;;;;;22.73;15.98;;;;;;;;;;4384893;32;319488;-78
2023/03/30 14:52:07;;;;;;;11.20;5.60;;;;;;;;;;4388553;32;318750;-80